Terminal Aerodrome Forecast
Issued by NWS Bismarck, ND

Home | Current Version | Previous Version | Text Only | Print | Product List | Glossary On
Versions: 1 2 3 4 5 6 7 8 9 10 11 12 13
000
FTUS43 KBIS 300528
TAFISN
TAF
KISN 300528Z 3006/0106 02015KT 1 1/2SM FU BKN030 BKN100
     FM301200 01006KT 3SM -SHRA FU BKN070 OVC120
     FM301600 14010KT P6SM VCSH BKN050 OVC080
     FM302300 10008KT P6SM -SHRA VCTS BKN050 OVC080CB
     FM010100 08009KT P6SM VCSH BKN070=

USA.gov is the U.S. government's official web portal to all federal, state and local government web resources and services.